< Typhoon 196013 1960 Season Typhoon 196015 >
Typhoon 196014 (BESS)
General InformationTrack Information on Google Maps || Disaster Info.ResourceGoogle EarthGE AnimationAtom FeedGeoJSON
Detalied Best Track (Time Zone = UTC)
Year Month Day Hour Lat. Long. Pressure (hPa) Wind (kt) Class Image Chart
1960 8 15 12 24.0 145.0 1003 0 2 -- Chart
1960 8 15 18 24.0 145.0 996 0 2 -- Chart
1960 8 16 00 24.2 145.0 990 0 9 -- Chart
1960 8 16 06 24.4 145.0 990 0 9 -- Chart
1960 8 16 12 24.4 145.3 990 0 9 -- Chart
1960 8 16 18 24.4 145.5 990 0 9 -- Chart
1960 8 17 00 24.1 145.9 990 0 9 -- Chart
1960 8 17 06 24.3 145.8 990 0 9 -- Chart
1960 8 17 12 25.0 145.0 990 0 9 -- Chart
1960 8 17 18 25.4 144.4 985 0 9 -- Chart
1960 8 18 00 26.0 143.5 985 0 9 -- Chart
1960 8 18 06 26.7 142.3 985 0 9 -- Chart
1960 8 18 12 27.0 141.5 985 0 9 -- Chart
1960 8 18 18 27.3 141.2 985 0 9 -- Chart
1960 8 19 00 28.1 140.9 985 0 9 -- Chart
1960 8 19 06 29.5 140.0 985 0 9 -- Chart
1960 8 19 12 30.7 139.3 980 0 9 -- Chart
1960 8 19 18 31.5 139.2 980 0 9 -- Chart
1960 8 20 00 32.5 139.1 980 0 9 -- Chart
1960 8 20 06 33.6 140.0 980 0 9 -- Chart
1960 8 20 12 34.7 141.1 980 0 9 -- Chart
1960 8 20 18 35.9 142.3 980 0 9 -- Chart
1960 8 21 00 36.5 143.5 980 0 9 -- Chart
1960 8 21 06 37.1 145.2 980 0 9 -- Chart
1960 8 21 12 37.0 147.2 980 0 9 -- Chart
1960 8 21 18 36.2 148.5 980 0 9 -- Chart
1960 8 22 00 35.9 150.5 980 0 9 -- Chart
1960 8 22 06 35.8 152.3 980 0 9 -- Chart
1960 8 22 12 35.7 153.6 980 0 9 -- Chart
1960 8 22 18 35.5 154.1 980 0 9 -- Chart
1960 8 23 00 35.0 154.2 980 0 9 -- Chart
1960 8 23 06 35.0 153.5 980 0 9 -- Chart
1960 8 23 12 35.0 152.9 980 0 9 -- Chart
1960 8 23 18 35.2 152.2 980 0 9 -- Chart
1960 8 24 00 35.5 151.1 980 0 9 -- Chart
1960 8 24 06 35.8 150.0 986 0 9 -- Chart
1960 8 24 12 36.2 148.8 986 0 9 -- Chart
1960 8 24 18 36.2 148.0 986 0 9 -- Chart
1960 8 25 00 36.9 147.0 986 0 9 -- Chart
1960 8 25 06 37.8 146.2 986 0 9 -- Chart
1960 8 25 12 39.1 145.5 986 0 9 -- Chart
1960 8 25 18 40.5 145.5 986 0 9 -- Chart
1960 8 26 00 42.0 146.3 990 0 9 -- Chart
1960 8 26 06 44.0 147.5 1000 0 6 -- Chart
Japan Meteorological Agency Best Track Data | Correction Date : 1990-10-17
< Typhoon 196013 1960 Season Typhoon 196015 >

Help